This is the latest recevied weather packets stored in our database for station/object SR2WXM. If no packets are shown the sender has not sent any weather packets the latest 10 day(s).
| Time | Temp. | Humidity | Pressure | Rain* | Wind** | Luminosity | Snow |
|---|---|---|---|---|---|---|---|
| 1777599001 | 2.78° C | 78% | 1025 hPa | 0 mm | - | - | - |
| 1777598104 | 3.89° C | 73% | 1025 hPa | 0 mm | - | - | - |
| 1777597202 | 5° C | 70% | 1025 hPa | 0 mm | - | - | - |
| 1777596302 | 5° C | 68% | 1025 hPa | 0 mm | - | - | - |
| 1777595402 | 5° C | 68% | 1025 hPa | 0 mm | - | - | - |
| 1777594502 | 5.56° C | 67% | 1025 hPa | 0 mm | - | - | - |
| 1777593602 | 5° C | 69% | 1025.4 hPa | 0 mm | - | - | - |
| 1777592703 | 5.56° C | 66% | 1025.4 hPa | 0 mm | - | - | - |
| 1777591802 | 6.67° C | 65% | 1025.4 hPa | 0 mm | - | - | - |
| 1777590902 | 5.56° C | 67% | 1025.4 hPa | 0 mm | - | - | - |
| 1777590001 | 5.56° C | 69% | 1025.4 hPa | 0 mm | - | - | - |
| 1777589102 | 6.67° C | 68% | 1025.4 hPa | 0 mm | - | - | - |
| 1777588202 | 5.56° C | 73% | 1025.4 hPa | 0 mm | - | - | - |
| 1777587302 | 6.67° C | 70% | 1025.4 hPa | 0 mm | - | - | - |
| 1777586408 | 7.78° C | 69% | 1025.4 hPa | 0 mm | - | - | - |
| 1777585502 | 7.78° C | 70% | 1025 hPa | 0 mm | - | - | - |
| 1777584603 | 7.78° C | 73% | 1025 hPa | 0 mm | - | - | - |
| 1777583702 | 6.67° C | 76% | 1025 hPa | 0 mm | - | - | - |
| 1777582804 | 6.67° C | 75% | 1025.4 hPa | 0 mm | - | - | - |
| 1777581903 | 7.78° C | 74% | 1025 hPa | 0 mm | - | - | - |
| 1777581002 | 7.78° C | 75% | 1025.4 hPa | 0 mm | - | - | - |
| 1777580103 | 7.78° C | 72% | 1025.4 hPa | 0 mm | - | - | - |
| 1777579204 | 8.89° C | 67% | 1025.4 hPa | 0 mm | - | - | - |
| 1777578302 | 10° C | 68% | 1025.4 hPa | 0 mm | - | - | - |
| 1777577402 | 10° C | 65% | 1025 hPa | 0 mm | - | - | - |
* Rain latest hour (hover to see other rain measurements)
** Current wind speed in m/s (hover to see current wind gust speed)